createdAt,value
2022-08-09T00:02:42.936Z,62.13
2022-08-09T00:07:54.247Z,59.78
2022-08-09T00:12:57.285Z,55.32
2022-08-09T00:18:07.745Z,54.64
2022-08-09T00:23:56.599Z,56.29
2022-08-09T00:28:37.531Z,58.17
2022-08-09T00:33:51.194Z,66.85
2022-08-09T00:38:54.709Z,67.06
2022-08-09T00:44:10.711Z,62.94
2022-08-09T00:49:20.726Z,60.71
2022-08-09T00:54:31.395Z,55.64
2022-08-09T00:59:46.588Z,54.59
2022-08-09T01:05:14.153Z,57.01
2022-08-09T01:10:45.938Z,60.27
2022-08-09T01:15:56.898Z,66.52
2022-08-09T01:21:20.954Z,65.00
2022-08-09T01:26:46.421Z,62.63
2022-08-09T01:32:31.030Z,55.84
2022-08-09T01:38:05.738Z,56.34
2022-08-09T01:42:50.209Z,59.12
2022-08-09T01:47:57.021Z,66.84
2022-08-09T01:53:01.866Z,66.64
2022-08-09T01:58:24.007Z,63.29
2022-08-09T02:03:30.474Z,61.05
2022-08-09T02:08:57.558Z,56.26
2022-08-09T02:14:07.728Z,54.82
2022-08-09T02:19:12.181Z,56.81
2022-08-09T02:24:26.305Z,58.66
2022-08-09T02:29:34.634Z,66.84
2022-08-09T02:34:41.543Z,66.67
2022-08-09T02:40:02.023Z,61.93
2022-08-09T02:45:13.869Z,61.33
2022-08-09T02:50:25.295Z,55.98
2022-08-09T02:55:39.425Z,55.66
2022-08-09T03:00:58.666Z,59.54
2022-08-09T03:06:03.596Z,66.69
2022-08-09T03:11:07.286Z,66.70
2022-08-09T03:16:14.881Z,63.03
2022-08-09T03:21:20.542Z,61.84
2022-08-09T03:26:31.858Z,57.83
2022-08-09T03:31:42.469Z,56.54
2022-08-09T03:36:58.546Z,58.18
2022-08-09T03:42:07.107Z,65.63
2022-08-09T03:47:10.051Z,65.47
2022-08-09T03:52:16.729Z,62.40
2022-08-09T03:57:21.990Z,60.35
2022-08-09T04:02:28.798Z,56.21
2022-08-09T04:07:47.107Z,55.37
2022-08-09T04:12:55.362Z,57.39
2022-08-09T04:17:58.097Z,59.08
2022-08-09T04:23:02.059Z,65.58
2022-08-09T04:28:05.410Z,65.56
2022-08-09T04:33:08.357Z,62.12
2022-08-09T04:38:11.605Z,56.96
2022-08-09T04:43:18.125Z,56.48
2022-08-09T04:48:23.784Z,57.84
2022-08-09T04:53:35.964Z,60.61
2022-08-09T04:58:39.072Z,66.49
2022-08-09T05:03:43.829Z,63.59
2022-08-09T05:08:48.024Z,56.95
2022-08-09T05:13:51.165Z,57.04
2022-08-09T05:18:59.957Z,59.77
2022-08-09T05:24:04.810Z,61.55
2022-08-09T05:29:17.267Z,65.35
2022-08-09T05:34:20.744Z,61.80
2022-08-09T05:39:28.827Z,56.59
2022-08-09T05:44:35.067Z,57.76
2022-08-09T05:50:30.399Z,60.52
2022-08-09T05:55:03.026Z,62.68
2022-08-09T06:00:13.501Z,59.95
2022-08-09T06:05:16.614Z,56.05
2022-08-09T06:10:19.517Z,58.67
2022-08-09T06:15:22.345Z,61.11
2022-08-09T06:20:25.605Z,62.82
2022-08-09T06:25:28.660Z,58.68
2022-08-09T06:30:32.004Z,59.60
2022-08-09T06:35:57.226Z,61.32
2022-08-09T06:40:58.209Z,64.49
2022-08-09T06:46:06.284Z,59.65
2022-08-09T06:51:14.902Z,56.47
2022-08-09T06:56:19.662Z,58.54
2022-08-09T07:01:24.133Z,61.56
2022-08-09T07:06:30.548Z,63.14
2022-08-09T07:11:45.494Z,58.70
2022-08-09T07:16:58.406Z,57.68
2022-08-09T07:22:02.029Z,59.01
2022-08-09T07:27:11.108Z,60.50
2022-08-09T07:32:32.838Z,61.34
2022-08-09T07:37:42.951Z,64.64
2022-08-09T07:43:16.705Z,60.11
2022-08-09T07:48:25.742Z,54.71
2022-08-09T07:53:36.447Z,57.01
2022-08-09T07:58:59.508Z,59.30
2022-08-09T08:04:03.667Z,59.83
2022-08-09T08:09:07.700Z,60.68
2022-08-09T08:14:23.960Z,60.60
2022-08-09T08:19:31.056Z,60.63
2022-08-09T08:24:40.732Z,60.70
2022-08-09T08:29:48.703Z,59.86
2022-08-09T08:34:55.439Z,59.26
2022-08-09T08:40:06.096Z,58.74
2022-08-09T08:45:13.726Z,58.17
2022-08-09T08:50:18.373Z,52.70
2022-08-09T08:55:23.538Z,47.10
2022-08-09T09:00:34.327Z,44.00
2022-08-09T09:06:00.523Z,41.22
2022-08-09T09:11:06.593Z,39.85
2022-08-09T09:16:10.178Z,36.40
2022-08-09T09:21:13.709Z,36.04
2022-08-09T09:26:18.538Z,33.43
2022-08-09T09:32:04.344Z,33.95
2022-08-09T09:36:53.356Z,32.76
2022-08-09T09:41:59.273Z,32.14
2022-08-09T09:47:08.738Z,33.03
2022-08-09T09:52:33.544Z,34.02
2022-08-09T09:58:02.278Z,33.89
2022-08-09T10:02:59.672Z,32.22
2022-08-09T10:08:27.382Z,31.26
2022-08-09T10:13:43.366Z,32.44
2022-08-09T10:18:54.227Z,31.95
2022-08-09T10:24:04.026Z,30.49
2022-08-09T10:29:38.027Z,28.41
2022-08-09T10:34:33.512Z,29.07
2022-08-09T10:39:49.285Z,26.82
2022-08-09T10:45:02.424Z,26.00
2022-08-09T10:51:01.319Z,26.17
2022-08-09T10:56:29.560Z,28.19
2022-08-09T11:03:13.092Z,26.84
2022-08-09T11:07:03.826Z,26.17
2022-08-09T11:12:13.057Z,24.82
2022-08-09T11:17:19.499Z,23.21
2022-08-09T11:22:47.364Z,22.86
2022-08-09T11:28:03.918Z,22.72
2022-08-09T11:33:17.516Z,21.93
2022-08-09T11:38:32.063Z,20.33
2022-08-09T11:43:35.841Z,19.81
2022-08-09T11:48:54.858Z,19.70
2022-08-09T11:54:28.132Z,19.91
2022-08-09T11:59:33.982Z,19.30
2022-08-09T12:04:38.198Z,19.08
2022-08-09T12:09:50.529Z,19.06
2022-08-09T12:15:04.321Z,20.90
2022-08-09T12:20:34.556Z,20.75
2022-08-09T12:25:38.362Z,19.83
2022-08-09T12:30:53.458Z,19.89
2022-08-09T12:36:05.507Z,20.33
2022-08-09T12:41:36.310Z,22.18
2022-08-09T12:46:48.882Z,24.59
2022-08-09T12:52:02.406Z,26.63
2022-08-09T12:57:06.246Z,28.33
2022-08-09T13:02:09.693Z,29.50
2022-08-09T13:07:19.425Z,30.76
2022-08-09T13:12:23.370Z,32.11
2022-08-09T13:18:02.576Z,33.42
2022-08-09T13:23:04.871Z,34.28
2022-08-09T13:28:24.350Z,35.24
2022-08-09T13:33:53.418Z,35.71
2022-08-09T13:39:00.942Z,35.84
2022-08-09T13:44:07.065Z,36.07
2022-08-09T13:49:18.343Z,36.58
2022-08-09T13:54:21.873Z,36.54
2022-08-09T13:59:41.550Z,36.43
2022-08-09T14:04:49.477Z,36.43
2022-08-09T14:10:03.203Z,36.34
2022-08-09T14:16:06.577Z,36.27
2022-08-09T14:20:30.509Z,36.10
2022-08-09T14:25:42.931Z,36.12
2022-08-09T14:30:46.308Z,36.02
2022-08-09T14:35:52.161Z,35.77
2022-08-09T14:41:02.372Z,35.41
2022-08-09T14:46:56.151Z,34.81
2022-08-09T14:51:42.789Z,34.24
2022-08-09T14:56:57.747Z,33.37
2022-08-09T15:02:01.906Z,29.97
2022-08-09T15:07:05.474Z,28.50
2022-08-09T15:12:13.086Z,28.74
2022-08-09T15:17:16.008Z,27.58
2022-08-09T15:22:18.897Z,28.50
2022-08-09T15:27:24.921Z,29.98
2022-08-09T15:32:30.553Z,30.88
2022-08-09T15:37:56.698Z,31.86
2022-08-09T15:43:00.040Z,32.98
2022-08-09T15:48:16.110Z,34.37
2022-08-09T15:54:05.275Z,35.03
2022-08-09T15:58:53.081Z,35.50
2022-08-09T16:03:55.903Z,36.10
2022-08-09T16:09:04.906Z,36.59
2022-08-09T16:14:08.454Z,37.08
2022-08-09T16:19:13.791Z,37.51
2022-08-09T16:24:30.267Z,37.52
2022-08-09T16:29:36.997Z,37.84
2022-08-09T16:34:54.352Z,38.55
2022-08-09T16:40:04.783Z,39.29
2022-08-09T16:45:09.691Z,40.32
2022-08-09T16:50:33.205Z,41.07
2022-08-09T16:55:57.905Z,41.37
2022-08-09T17:00:59.864Z,41.81
2022-08-09T17:06:29.460Z,43.17
2022-08-09T17:11:37.683Z,43.44
2022-08-09T17:16:44.629Z,43.89
2022-08-09T17:21:47.478Z,44.46
2022-08-09T17:26:53.632Z,45.43
2022-08-09T17:31:58.367Z,46.25
2022-08-09T17:37:02.309Z,48.98
2022-08-09T17:42:06.008Z,48.01
2022-08-09T17:47:10.575Z,48.04
2022-08-09T17:52:22.269Z,48.53
2022-08-09T17:58:03.968Z,48.78
2022-08-09T18:02:50.184Z,49.68
2022-08-09T18:08:01.136Z,51.74
2022-08-09T18:13:53.696Z,51.98
2022-08-09T18:18:32.895Z,52.55
2022-08-09T18:24:10.376Z,53.82
2022-08-09T18:30:40.886Z,52.69
2022-08-09T18:34:23.884Z,53.70
2022-08-09T18:39:32.125Z,54.67
2022-08-09T18:44:35.644Z,54.99
2022-08-09T18:49:43.185Z,55.29
2022-08-09T18:54:52.166Z,55.48
2022-08-09T19:00:03.053Z,56.50
2022-08-09T19:05:20.090Z,55.55
2022-08-09T19:10:37.542Z,57.98
2022-08-09T19:15:44.093Z,58.34
2022-08-09T19:20:56.976Z,59.09
2022-08-09T19:26:04.940Z,58.83
2022-08-09T19:31:08.327Z,59.19
2022-08-09T19:36:11.888Z,59.97
2022-08-09T19:41:32.656Z,60.54
2022-08-09T19:46:50.826Z,70.43
2022-08-09T19:51:57.185Z,67.26
2022-08-09T19:57:00.481Z,62.06
2022-08-09T20:02:17.148Z,56.55
2022-08-09T20:07:57.039Z,57.00
2022-08-09T20:12:51.901Z,58.53
2022-08-09T20:17:55.288Z,58.64
2022-08-09T20:22:58.217Z,58.68
2022-08-09T20:28:02.718Z,59.85
2022-08-09T20:33:06.562Z,60.94
2022-08-09T20:38:21.120Z,70.78
2022-08-09T20:43:32.324Z,67.64
2022-08-09T20:48:37.266Z,62.91
2022-08-09T20:53:40.752Z,59.72
2022-08-09T20:58:44.168Z,55.88
2022-08-09T21:05:48.209Z,57.94
2022-08-09T21:09:14.170Z,59.38
2022-08-09T21:14:19.514Z,61.21
2022-08-09T21:20:19.345Z,68.36
2022-08-09T21:25:05.305Z,64.52
2022-08-09T21:30:09.127Z,59.81
2022-08-09T21:35:13.500Z,56.66
2022-08-09T21:40:22.004Z,58.98
2022-08-09T21:45:38.799Z,61.01
2022-08-09T21:50:46.667Z,68.43
2022-08-09T21:55:54.613Z,65.71
2022-08-09T22:00:57.313Z,61.85
2022-08-09T22:06:01.092Z,59.97
2022-08-09T22:12:06.707Z,57.21
2022-08-09T22:16:26.791Z,59.81
2022-08-09T22:21:49.820Z,66.30
2022-08-09T22:26:54.142Z,64.39
2022-08-09T22:31:58.088Z,61.01
2022-08-09T22:37:01.468Z,57.58
2022-08-09T22:42:16.359Z,60.28
2022-08-09T22:48:14.264Z,66.55
2022-08-09T22:52:54.659Z,63.23
2022-08-09T22:58:00.935Z,60.88
2022-08-09T23:03:12.584Z,58.87
2022-08-09T23:08:34.806Z,58.06
2022-08-09T23:13:37.756Z,60.88
2022-08-09T23:18:41.944Z,67.83
2022-08-09T23:24:05.632Z,64.89
2022-08-09T23:29:11.566Z,61.67
2022-08-09T23:34:14.318Z,60.27
2022-08-09T23:39:17.562Z,57.95
2022-08-09T23:44:20.428Z,59.63
2022-08-09T23:49:24.702Z,66.23
2022-08-09T23:54:27.861Z,64.28
2022-08-09T23:59:51.145Z,62.33
